sensor_id;sensor_type;location;lat;lon;timestamp;pressure;altitude;pressure_sealevel;temperature;humidity
9423;BME280;65863;49.506;10.400;2022-12-07T00:00:01;98047.75;;;1.72;94.18
9423;BME280;65863;49.506;10.400;2022-12-07T00:02:45;98036.13;;;1.62;93.94
9423;BME280;65863;49.506;10.400;2022-12-07T00:05:29;98013.09;;;1.45;93.93
9423;BME280;65863;49.506;10.400;2022-12-07T00:08:13;98045.63;;;1.55;94.03
9423;BME280;65863;49.506;10.400;2022-12-07T00:11:18;98048.97;;;1.65;94.34
9423;BME280;65863;49.506;10.400;2022-12-07T00:14:07;98052.00;;;1.67;94.27
9423;BME280;65863;49.506;10.400;2022-12-07T00:16:51;98036.31;;;1.59;94.13
9423;BME280;65863;49.506;10.400;2022-12-07T00:19:36;97985.56;;;1.30;94.33
9423;BME280;65863;49.506;10.400;2022-12-07T00:22:20;98034.84;;;1.58;94.00
9423;BME280;65863;49.506;10.400;2022-12-07T00:25:04;98006.78;;;1.44;94.14
9423;BME280;65863;49.506;10.400;2022-12-07T00:27:48;98016.56;;;1.40;94.22
9423;BME280;65863;49.506;10.400;2022-12-07T00:30:32;98013.31;;;1.41;94.30
9423;BME280;65863;49.506;10.400;2022-12-07T00:33:16;98011.66;;;1.55;94.38
9423;BME280;65863;49.506;10.400;2022-12-07T00:36:01;98033.59;;;1.64;93.88
9423;BME280;65863;49.506;10.400;2022-12-07T00:38:47;98014.94;;;1.53;94.23
9423;BME280;65863;49.506;10.400;2022-12-07T00:41:31;98004.75;;;1.39;94.01
9423;BME280;65863;49.506;10.400;2022-12-07T00:44:15;98007.56;;;1.45;94.07
9423;BME280;65863;49.506;10.400;2022-12-07T00:46:59;97995.13;;;1.34;94.10
9423;BME280;65863;49.506;10.400;2022-12-07T00:49:43;98001.75;;;1.43;94.63
9423;BME280;65863;49.506;10.400;2022-12-07T00:52:27;98001.75;;;1.43;94.38
9423;BME280;65863;49.506;10.400;2022-12-07T00:55:11;98025.00;;;1.57;94.40
9423;BME280;65863;49.506;10.400;2022-12-07T00:57:55;98012.13;;;1.48;94.23
9423;BME280;65863;49.506;10.400;2022-12-07T01:00:40;98032.59;;;1.62;94.54
9423;BME280;65863;49.506;10.400;2022-12-07T01:03:25;97999.44;;;1.35;94.26
9423;BME280;65863;49.506;10.400;2022-12-07T01:06:09;98004.75;;;1.39;94.68
9423;BME280;65863;49.506;10.400;2022-12-07T01:08:58;98028.47;;;1.51;94.18
9423;BME280;65863;49.506;10.400;2022-12-07T01:11:42;97997.22;;;1.40;94.19
9423;BME280;65863;49.506;10.400;2022-12-07T01:14:25;98021.16;;;1.48;94.34
9423;BME280;65863;49.506;10.400;2022-12-07T01:17:09;97991.84;;;1.30;94.50
9423;BME280;65863;49.506;10.400;2022-12-07T01:19:53;98029.78;;;1.56;94.36
9423;BME280;65863;49.506;10.400;2022-12-07T01:22:39;97979.44;;;1.20;94.42
9423;BME280;65863;49.506;10.400;2022-12-07T01:25:23;98009.22;;;1.31;94.60
9423;BME280;65863;49.506;10.400;2022-12-07T01:28:07;98015.72;;;1.28;94.31
9423;BME280;65863;49.506;10.400;2022-12-07T01:31:00;98036.19;;;1.42;94.45
9423;BME280;65863;49.506;10.400;2022-12-07T01:33:51;98000.47;;;1.12;94.65
9423;BME280;65863;49.506;10.400;2022-12-07T01:36:36;98007.03;;;1.14;94.76
9423;BME280;65863;49.506;10.400;2022-12-07T01:39:20;98015.72;;;1.28;94.56
9423;BME280;65863;49.506;10.400;2022-12-07T01:42:09;98004.63;;;1.22;94.75
9423;BME280;65863;49.506;10.400;2022-12-07T01:48:03;98037.34;;;1.29;94.88
9423;BME280;65863;49.506;10.400;2022-12-07T01:50:50;97983.53;;;0.98;94.83
9423;BME280;65863;49.506;10.400;2022-12-07T01:53:38;98018.97;;;1.26;95.15
9423;BME280;65863;49.506;10.400;2022-12-07T01:56:25;98006.84;;;1.18;94.92
9423;BME280;65863;49.506;10.400;2022-12-07T01:59:10;97993.44;;;1.11;94.90
9423;BME280;65863;49.506;10.400;2022-12-07T02:01:55;98000.22;;;1.10;94.81
9423;BME280;65863;49.506;10.400;2022-12-07T02:04:39;98001.03;;;1.16;94.94
9423;BME280;65863;49.506;10.400;2022-12-07T02:07:23;97971.22;;;0.99;94.65
9423;BME280;65863;49.506;10.400;2022-12-07T02:10:16;97995.34;;;1.25;94.67
9423;BME280;65863;49.506;10.400;2022-12-07T02:13:10;97960.81;;;0.89;94.37
9423;BME280;65863;49.506;10.400;2022-12-07T02:16:21;97995.94;;;1.09;94.78
9423;BME280;65863;49.506;10.400;2022-12-07T02:41:47;97950.41;;;0.51;94.41
9423;BME280;65863;49.506;10.400;2022-12-07T02:44:34;97958.75;;;0.57;94.82
9423;BME280;65863;49.506;10.400;2022-12-07T02:47:19;97961.28;;;0.61;94.68
9423;BME280;65863;49.506;10.400;2022-12-07T02:50:06;97991.09;;;0.77;94.86
9423;BME280;65863;49.506;10.400;2022-12-07T02:52:50;97968.81;;;0.60;94.36
9423;BME280;65863;49.506;10.400;2022-12-07T02:55:39;97956.75;;;0.58;94.66
9423;BME280;65863;49.506;10.400;2022-12-07T02:58:50;97978.75;;;0.73;94.78
9423;BME280;65863;49.506;10.400;2022-12-07T03:01:51;97937.63;;;0.54;94.44
9423;BME280;65863;49.506;10.400;2022-12-07T03:08:00;97967.72;;;0.73;94.81
9423;BME280;65863;49.506;10.400;2022-12-07T03:13:53;97955.28;;;0.62;94.38
9423;BME280;65863;49.506;10.400;2022-12-07T03:16:45;97945.16;;;0.54;94.52
9423;BME280;65863;49.506;10.400;2022-12-07T03:19:32;97979.31;;;0.77;94.79
9423;BME280;65863;49.506;10.400;2022-12-07T03:22:18;97968.03;;;0.80;94.40
9423;BME280;65863;49.506;10.400;2022-12-07T03:25:06;97929.34;;;0.54;94.70
9423;BME280;65863;49.506;10.400;2022-12-07T03:28:02;97963.03;;;0.84;94.85
9423;BME280;65863;49.506;10.400;2022-12-07T03:30:56;97940.03;;;0.67;94.64
9423;BME280;65863;49.506;10.400;2022-12-07T03:33:46;97954.50;;;0.82;94.60
9423;BME280;65863;49.506;10.400;2022-12-07T03:39:29;97958.75;;;0.83;94.56
9423;BME280;65863;49.506;10.400;2022-12-07T03:42:15;97949.41;;;0.75;94.56
9423;BME280;65863;49.506;10.400;2022-12-07T03:45:04;97962.00;;;0.82;94.39
9423;BME280;65863;49.506;10.400;2022-12-07T03:47:54;97959.41;;;0.73;94.64
9423;BME280;65863;49.506;10.400;2022-12-07T03:53:48;97966.94;;;0.72;94.36
9423;BME280;65863;49.506;10.400;2022-12-07T03:56:35;97948.03;;;0.65;94.47
9423;BME280;65863;49.506;10.400;2022-12-07T03:59:20;97942.59;;;0.50;94.56
9423;BME280;65863;49.506;10.400;2022-12-07T04:02:06;97956.47;;;0.82;94.59
9423;BME280;65863;49.506;10.400;2022-12-07T04:04:50;97942.00;;;0.66;94.65
9423;BME280;65863;49.506;10.400;2022-12-07T04:07:34;97924.13;;;0.62;94.32
9423;BME280;65863;49.506;10.400;2022-12-07T04:10:18;97921.06;;;0.54;94.42
9423;BME280;65863;49.506;10.400;2022-12-07T04:13:02;97922.41;;;0.64;94.63
9423;BME280;65863;49.506;10.400;2022-12-07T04:15:47;97926.75;;;0.71;94.60
9423;BME280;65863;49.506;10.400;2022-12-07T04:18:31;97936.22;;;0.64;94.63
9423;BME280;65863;49.506;10.400;2022-12-07T04:21:15;97907.44;;;0.50;94.51
9423;BME280;65863;49.506;10.400;2022-12-07T04:23:59;97918.63;;;0.62;94.70
9423;BME280;65863;49.506;10.400;2022-12-07T04:26:44;97923.50;;;0.73;94.47
9423;BME280;65863;49.506;10.400;2022-12-07T04:29:28;97934.53;;;0.73;94.48
9423;BME280;65863;49.506;10.400;2022-12-07T04:32:12;97917.09;;;0.61;94.41
9423;BME280;65863;49.506;10.400;2022-12-07T04:34:56;97943.44;;;0.82;94.59
9423;BME280;65863;49.506;10.400;2022-12-07T04:37:39;97914.59;;;0.63;94.80
9423;BME280;65863;49.506;10.400;2022-12-07T04:40:23;97920.44;;;0.71;94.72
9423;BME280;65863;49.506;10.400;2022-12-07T04:43:07;97914.13;;;0.64;94.54
9423;BME280;65863;49.506;10.400;2022-12-07T04:45:51;97931.59;;;0.82;94.77
9423;BME280;65863;49.506;10.400;2022-12-07T04:48:35;97915.66;;;0.65;94.60
9423;BME280;65863;49.506;10.400;2022-12-07T04:51:25;97944.50;;;0.91;94.62
9423;BME280;65863;49.506;10.400;2022-12-07T04:54:10;97946.50;;;0.90;94.44
9423;BME280;65863;49.506;10.400;2022-12-07T04:56:54;97951.53;;;0.92;94.66
9423;BME280;65863;49.506;10.400;2022-12-07T04:59:38;97938.44;;;0.87;94.41
9423;BME280;65863;49.506;10.400;2022-12-07T05:02:22;97910.66;;;0.70;94.31
9423;BME280;65863;49.506;10.400;2022-12-07T05:05:06;97947.25;;;0.91;94.50
9423;BME280;65863;49.506;10.400;2022-12-07T05:07:51;97930.09;;;0.81;94.47
9423;BME280;65863;49.506;10.400;2022-12-07T05:10:34;97925.31;;;0.81;94.25
9423;BME280;65863;49.506;10.400;2022-12-07T05:13:19;97929.06;;;0.78;94.54
9423;BME280;65863;49.506;10.400;2022-12-07T05:16:02;97955.88;;;0.98;94.34
9423;BME280;65863;49.506;10.400;2022-12-07T05:18:46;97930.84;;;0.81;94.10
9423;BME280;65863;49.506;10.400;2022-12-07T05:21:30;97927.59;;;0.83;94.53
9423;BME280;65863;49.506;10.400;2022-12-07T05:24:15;97925.31;;;0.81;94.20
9423;BME280;65863;49.506;10.400;2022-12-07T05:27:00;97920.00;;;0.78;94.56
9423;BME280;65863;49.506;10.400;2022-12-07T05:29:44;97945.03;;;0.95;94.38
9423;BME280;65863;49.506;10.400;2022-12-07T05:32:28;97943.53;;;0.94;94.10
9423;BME280;65863;49.506;10.400;2022-12-07T05:35:12;97939.47;;;0.89;94.33
9423;BME280;65863;49.506;10.400;2022-12-07T05:37:56;97941.25;;;0.92;94.41
9423;BME280;65863;49.506;10.400;2022-12-07T05:40:41;97954.34;;;0.97;94.76
9423;BME280;65863;49.506;10.400;2022-12-07T05:43:25;97927.59;;;0.83;94.67
9423;BME280;65863;49.506;10.400;2022-12-07T05:46:09;97926.06;;;0.82;94.29
9423;BME280;65863;49.506;10.400;2022-12-07T05:48:52;97923.06;;;0.80;94.34
9423;BME280;65863;49.506;10.400;2022-12-07T05:51:36;97929.38;;;0.86;94.61
9423;BME280;65863;49.506;10.400;2022-12-07T05:54:20;97945.28;;;0.91;94.73
9423;BME280;65863;49.506;10.400;2022-12-07T05:57:04;97943.59;;;0.99;94.65
9423;BME280;65863;49.506;10.400;2022-12-07T05:59:49;97916.50;;;0.77;94.43
9423;BME280;65863;49.506;10.400;2022-12-07T06:02:33;97901.16;;;0.76;94.49
9423;BME280;65863;49.506;10.400;2022-12-07T06:05:17;97907.47;;;0.77;94.48
9423;BME280;65863;49.506;10.400;2022-12-07T06:08:01;97904.94;;;0.79;94.70
9423;BME280;65863;49.506;10.400;2022-12-07T06:10:47;97927.16;;;0.90;94.83
9423;BME280;65863;49.506;10.400;2022-12-07T06:13:50;97903.72;;;0.80;94.48
9423;BME280;65863;49.506;10.400;2022-12-07T06:16:34;97913.53;;;0.81;94.57
9423;BME280;65863;49.506;10.400;2022-12-07T06:19:19;97909.72;;;0.78;94.63
9423;BME280;65863;49.506;10.400;2022-12-07T06:22:03;97927.16;;;0.90;94.81
9423;BME280;65863;49.506;10.400;2022-12-07T06:24:48;97902.19;;;0.79;94.72
9423;BME280;65863;49.506;10.400;2022-12-07T06:27:32;97908.31;;;0.89;94.81
9423;BME280;65863;49.506;10.400;2022-12-07T06:30:17;97891.13;;;0.79;94.95
9423;BME280;65863;49.506;10.400;2022-12-07T06:33:01;97932.25;;;0.97;95.12
9423;BME280;65863;49.506;10.400;2022-12-07T06:35:45;97919.16;;;0.92;94.88
9423;BME280;65863;49.506;10.400;2022-12-07T06:38:29;97912.63;;;0.95;94.72
9423;BME280;65863;49.506;10.400;2022-12-07T06:41:13;97920.00;;;1.04;95.13
9423;BME280;65863;49.506;10.400;2022-12-07T06:43:57;97931.69;;;1.19;94.98
9423;BME280;65863;49.506;10.400;2022-12-07T06:46:41;97918.25;;;1.07;94.92
9423;BME280;65863;49.506;10.400;2022-12-07T06:49:25;97929.41;;;1.18;94.71
9423;BME280;65863;49.506;10.400;2022-12-07T06:52:09;97924.31;;;1.11;94.70
9423;BME280;65863;49.506;10.400;2022-12-07T06:54:53;97951.91;;;1.37;94.95
9423;BME280;65863;49.506;10.400;2022-12-07T06:57:37;97956.41;;;1.34;94.68
9423;BME280;65863;49.506;10.400;2022-12-07T07:00:22;97946.09;;;1.29;95.06
9423;BME280;65863;49.506;10.400;2022-12-07T07:03:06;97930.94;;;1.25;94.95
9423;BME280;65863;49.506;10.400;2022-12-07T07:05:50;97950.63;;;1.32;95.03
9423;BME280;65863;49.506;10.400;2022-12-07T07:08:35;97951.91;;;1.37;94.97
9423;BME280;65863;49.506;10.400;2022-12-07T07:11:19;97936.44;;;1.19;94.70
9423;BME280;65863;49.506;10.400;2022-12-07T07:14:04;97939.19;;;1.19;94.59
9423;BME280;65863;49.506;10.400;2022-12-07T07:16:47;97940.47;;;1.18;94.60
9423;BME280;65863;49.506;10.400;2022-12-07T07:19:31;97949.66;;;1.35;94.71
9423;BME280;65863;49.506;10.400;2022-12-07T07:22:15;97935.25;;;1.26;94.55
9423;BME280;65863;49.506;10.400;2022-12-07T07:25:00;97960.97;;;1.37;94.62
9423;BME280;65863;49.506;10.400;2022-12-07T07:27:44;97929.44;;;1.24;94.63
9423;BME280;65863;49.506;10.400;2022-12-07T07:30:28;97932.44;;;1.20;94.43
9423;BME280;65863;49.506;10.400;2022-12-07T07:33:12;97936.22;;;1.23;94.63
9423;BME280;65863;49.506;10.400;2022-12-07T07:35:57;97947.06;;;1.26;94.36
9423;BME280;65863;49.506;10.400;2022-12-07T07:38:41;97942.50;;;1.23;94.28
9423;BME280;65863;49.506;10.400;2022-12-07T07:41:25;97951.09;;;1.25;94.48
9423;BME280;65863;49.506;10.400;2022-12-07T07:44:09;97961.78;;;1.44;94.62
9423;BME280;65863;49.506;10.400;2022-12-07T07:46:53;97948.66;;;1.38;94.17
9423;BME280;65863;49.506;10.400;2022-12-07T07:49:37;97942.59;;;1.34;94.07
9423;BME280;65863;49.506;10.400;2022-12-07T07:52:22;97943.13;;;1.38;94.32
9423;BME280;65863;49.506;10.400;2022-12-07T07:55:06;97939.66;;;1.44;94.25
9423;BME280;65863;49.506;10.400;2022-12-07T07:57:54;97929.50;;;1.29;93.63
9423;BME280;65863;49.506;10.400;2022-12-07T08:00:38;97937.88;;;1.41;93.69
9423;BME280;65863;49.506;10.400;2022-12-07T08:03:22;97963.19;;;1.65;93.88
9423;BME280;65863;49.506;10.400;2022-12-07T08:06:06;97954.06;;;1.53;93.92
9423;BME280;65863;49.506;10.400;2022-12-07T08:08:50;97965.38;;;1.55;93.47
9423;BME280;65863;49.506;10.400;2022-12-07T08:11:34;97940.16;;;1.42;93.43
9423;BME280;65863;49.506;10.400;2022-12-07T08:14:19;97955.00;;;1.45;92.81
9423;BME280;65863;49.506;10.400;2022-12-07T08:17:04;97978.28;;;1.70;93.27
9423;BME280;65863;49.506;10.400;2022-12-07T08:19:48;97955.53;;;1.54;93.27
9423;BME280;65863;49.506;10.400;2022-12-07T08:22:32;97948.97;;;1.46;92.95
9423;BME280;65863;49.506;10.400;2022-12-07T08:25:16;97935.56;;;1.33;92.70
9423;BME280;65863;49.506;10.400;2022-12-07T08:28:00;97957.84;;;1.56;92.98
9423;BME280;65863;49.506;10.400;2022-12-07T08:30:44;97954.59;;;1.58;93.21
9423;BME280;65863;49.506;10.400;2022-12-07T08:33:28;97983.63;;;1.74;93.11
9423;BME280;65863;49.506;10.400;2022-12-07T08:36:13;97966.19;;;1.62;92.71
9423;BME280;65863;49.506;10.400;2022-12-07T08:38:57;97954.63;;;1.63;92.52
9423;BME280;65863;49.506;10.400;2022-12-07T08:41:41;97989.22;;;1.85;92.66
9423;BME280;65863;49.506;10.400;2022-12-07T08:44:25;97943.53;;;1.58;92.61
9423;BME280;65863;49.506;10.400;2022-12-07T08:47:10;97956.41;;;1.66;92.46
9423;BME280;65863;49.506;10.400;2022-12-07T08:49:55;97987.97;;;1.86;92.25
9423;BME280;65863;49.506;10.400;2022-12-07T08:52:40;97951.69;;;1.78;92.36
9423;BME280;65863;49.506;10.400;2022-12-07T08:55:25;97973.19;;;2.00;92.09
9423;BME280;65863;49.506;10.400;2022-12-07T08:58:11;97971.19;;;2.01;91.98
9423;BME280;65863;49.506;10.400;2022-12-07T09:00:55;97958.31;;;1.92;91.60
9423;BME280;65863;49.506;10.400;2022-12-07T09:03:39;97987.13;;;2.17;92.02
9423;BME280;65863;49.506;10.400;2022-12-07T09:06:24;97944.22;;;1.90;91.67
9423;BME280;65863;49.506;10.400;2022-12-07T09:09:08;97965.16;;;2.02;91.46
9423;BME280;65863;49.506;10.400;2022-12-07T09:11:53;97976.06;;;2.17;91.46
9423;BME280;65863;49.506;10.400;2022-12-07T09:14:37;97962.91;;;2.06;90.92
9423;BME280;65863;49.506;10.400;2022-12-07T09:17:21;97989.69;;;2.27;91.06
9423;BME280;65863;49.506;10.400;2022-12-07T09:20:06;97971.72;;;2.11;91.11
9423;BME280;65863;49.506;10.400;2022-12-07T09:22:50;97981.59;;;2.17;91.01
9423;BME280;65863;49.506;10.400;2022-12-07T09:25:35;97995.25;;;2.32;90.83
9423;BME280;65863;49.506;10.400;2022-12-07T09:28:18;97966.91;;;2.05;90.66
9423;BME280;65863;49.506;10.400;2022-12-07T09:31:03;97970.22;;;2.10;90.79
9423;BME280;65863;49.506;10.400;2022-12-07T09:33:55;98004.81;;;2.31;90.74
9423;BME280;65863;49.506;10.400;2022-12-07T09:36:40;97993.47;;;2.29;90.95
9423;BME280;65863;49.506;10.400;2022-12-07T09:39:24;97977.06;;;2.14;90.75
9423;BME280;65863;49.506;10.400;2022-12-07T09:42:09;97977.78;;;2.15;90.71
9423;BME280;65863;49.506;10.400;2022-12-07T09:45:02;97991.19;;;2.28;90.82
9423;BME280;65863;49.506;10.400;2022-12-07T09:47:48;97962.41;;;2.08;90.78
9423;BME280;65863;49.506;10.400;2022-12-07T09:50:32;97961.19;;;2.15;91.07
9423;BME280;65863;49.506;10.400;2022-12-07T09:53:23;97988.44;;;2.33;90.78
9423;BME280;65863;49.506;10.400;2022-12-07T09:56:12;97977.13;;;2.31;90.56
9423;BME280;65863;49.506;10.400;2022-12-07T09:59:01;97975.38;;;2.39;91.15
9423;BME280;65863;49.506;10.400;2022-12-07T10:01:48;97979.16;;;2.42;90.87
9423;BME280;65863;49.506;10.400;2022-12-07T10:04:32;97951.16;;;2.29;91.31
9423;BME280;65863;49.506;10.400;2022-12-07T10:07:16;97958.97;;;2.24;91.10
9423;BME280;65863;49.506;10.400;2022-12-07T10:10:03;97969.56;;;2.32;90.90
9423;BME280;65863;49.506;10.400;2022-12-07T10:13:03;97956.72;;;2.29;91.13
9423;BME280;65863;49.506;10.400;2022-12-07T10:15:55;97968.84;;;2.43;90.96
9423;BME280;65863;49.506;10.400;2022-12-07T10:18:41;97962.03;;;2.44;91.02
9423;BME280;65863;49.506;10.400;2022-12-07T10:21:26;97938.56;;;2.28;91.04
9423;BME280;65863;49.506;10.400;2022-12-07T10:26:54;97917.94;;;2.34;91.41
9423;BME280;65863;49.506;10.400;2022-12-07T10:29:39;97943.91;;;2.43;91.22
9423;BME280;65863;49.506;10.400;2022-12-07T10:32:32;97956.53;;;2.55;91.25
9423;BME280;65863;49.506;10.400;2022-12-07T10:35:29;97948.97;;;2.50;91.34
9423;BME280;65863;49.506;10.400;2022-12-07T10:38:16;97932.56;;;2.40;91.24
9423;BME280;65863;49.506;10.400;2022-12-07T10:41:05;97946.44;;;2.52;91.70
9423;BME280;65863;49.506;10.400;2022-12-07T10:43:53;97941.66;;;2.47;91.37
9423;BME280;65863;49.506;10.400;2022-12-07T10:46:42;97949.75;;;2.56;91.46
9423;BME280;65863;49.506;10.400;2022-12-07T10:53:14;97955.28;;;2.56;91.60
9423;BME280;65863;49.506;10.400;2022-12-07T11:01:33;97946.00;;;2.76;91.59
9423;BME280;65863;49.506;10.400;2022-12-07T11:04:54;97863.75;;;2.22;91.44
9423;BME280;65863;49.506;10.400;2022-12-07T11:11:05;97933.16;;;2.79;91.55
9423;BME280;65863;49.506;10.400;2022-12-07T11:20:02;97922.06;;;2.79;90.95
9423;BME280;65863;49.506;10.400;2022-12-07T11:34:48;97921.06;;;2.93;90.66
9423;BME280;65863;49.506;10.400;2022-12-07T11:37:38;97891.56;;;2.79;90.47
9423;BME280;65863;49.506;10.400;2022-12-07T11:40:29;97912.50;;;2.91;90.66
9423;BME280;65863;49.506;10.400;2022-12-07T11:43:25;97907.69;;;2.86;90.44
9423;BME280;65863;49.506;10.400;2022-12-07T11:46:12;97881.72;;;2.66;90.10
9423;BME280;65863;49.506;10.400;2022-12-07T11:49:07;97917.28;;;2.90;90.51
9423;BME280;65863;49.506;10.400;2022-12-07T11:51:58;97884.00;;;2.73;90.18
9423;BME280;65863;49.506;10.400;2022-12-07T11:54:45;97902.66;;;2.96;90.02
9423;BME280;65863;49.506;10.400;2022-12-07T11:57:42;97887.03;;;2.81;90.21
9423;BME280;65863;49.506;10.400;2022-12-07T12:00:28;97863.09;;;2.72;89.99
9423;BME280;65863;49.506;10.400;2022-12-07T12:03:15;97911.47;;;2.83;90.30
9423;BME280;65863;49.506;10.400;2022-12-07T12:06:05;97887.53;;;2.85;90.10
9423;BME280;65863;49.506;10.400;2022-12-07T12:12:23;97895.38;;;2.87;90.25
9423;BME280;65863;49.506;10.400;2022-12-07T12:15:29;97882.22;;;2.70;90.08
9423;BME280;65863;49.506;10.400;2022-12-07T12:21:07;97894.84;;;2.83;90.13
9423;BME280;65863;49.506;10.400;2022-12-07T12:24:00;97895.09;;;2.85;90.21
9423;BME280;65863;49.506;10.400;2022-12-07T12:26:53;97871.91;;;2.71;89.95
9423;BME280;65863;49.506;10.400;2022-12-07T12:29:41;97860.84;;;2.77;89.83
9423;BME280;65863;49.506;10.400;2022-12-07T12:35:30;97885.00;;;2.87;89.72
9423;BME280;65863;49.506;10.400;2022-12-07T12:38:29;97882.22;;;2.76;89.26
9423;BME280;65863;49.506;10.400;2022-12-07T12:47:40;97883.25;;;2.79;89.29
9423;BME280;65863;49.506;10.400;2022-12-07T12:50:25;97870.13;;;2.79;89.19
9423;BME280;65863;49.506;10.400;2022-12-07T12:53:26;97853.25;;;2.66;89.39
9423;BME280;65863;49.506;10.400;2022-12-07T12:56:27;97874.19;;;2.72;89.18
9423;BME280;65863;49.506;10.400;2022-12-07T13:02:21;97854.28;;;2.68;89.20
9423;BME280;65863;49.506;10.400;2022-12-07T13:08:02;97852.75;;;2.73;89.18
9423;BME280;65863;49.506;10.400;2022-12-07T13:10:47;97828.31;;;2.54;88.85
9423;BME280;65863;49.506;10.400;2022-12-07T13:13:32;97853.00;;;2.81;89.41
9423;BME280;65863;49.506;10.400;2022-12-07T13:19:01;97831.31;;;2.62;88.91
9423;BME280;65863;49.506;10.400;2022-12-07T13:21:45;97841.16;;;2.80;89.10
9423;BME280;65863;49.506;10.400;2022-12-07T13:24:31;97845.69;;;2.78;89.20
9423;BME280;65863;49.506;10.400;2022-12-07T13:27:15;97825.53;;;2.77;89.38
9423;BME280;65863;49.506;10.400;2022-12-07T13:29:59;97823.00;;;2.73;88.98
9423;BME280;65863;49.506;10.400;2022-12-07T13:32:51;97824.78;;;2.77;89.13
9423;BME280;65863;49.506;10.400;2022-12-07T13:35:37;97809.41;;;2.64;89.23
9423;BME280;65863;49.506;10.400;2022-12-07T13:38:22;97836.63;;;2.83;89.05
9423;BME280;65863;49.506;10.400;2022-12-07T13:41:17;97825.03;;;2.79;89.32
9423;BME280;65863;49.506;10.400;2022-12-07T13:47:01;97780.69;;;2.45;88.55
9423;BME280;65863;49.506;10.400;2022-12-07T13:49:52;97780.44;;;2.54;88.69
9423;BME280;65863;49.506;10.400;2022-12-07T13:52:43;97815.97;;;2.78;89.10
9423;BME280;65863;49.506;10.400;2022-12-07T13:55:28;97628.31;;;1.54;88.86
9423;BME280;65863;49.506;10.400;2022-12-07T13:58:13;97834.34;;;3.04;88.82
9423;BME280;65863;49.506;10.400;2022-12-07T14:00:57;97806.63;;;2.87;88.98
9423;BME280;65863;49.506;10.400;2022-12-07T14:03:42;97798.06;;;2.79;88.86
9423;BME280;65863;49.506;10.400;2022-12-07T14:06:26;97817.22;;;2.94;88.64
9423;BME280;65863;49.506;10.400;2022-12-07T14:09:23;97828.03;;;3.03;88.56
9423;BME280;65863;49.506;10.400;2022-12-07T14:12:07;97810.44;;;2.84;88.46
9423;BME280;65863;49.506;10.400;2022-12-07T14:14:52;97822.75;;;2.83;88.53
9423;BME280;65863;49.506;10.400;2022-12-07T14:17:52;97812.44;;;2.72;88.15
9423;BME280;65863;49.506;10.400;2022-12-07T14:20:39;97834.88;;;2.91;88.15
9423;BME280;65863;49.506;10.400;2022-12-07T14:23:25;97826.03;;;2.75;88.13
9423;BME280;65863;49.506;10.400;2022-12-07T14:26:20;97842.91;;;2.89;87.99
9423;BME280;65863;49.506;10.400;2022-12-07T14:32:25;97822.25;;;2.79;88.23
9423;BME280;65863;49.506;10.400;2022-12-07T14:35:13;97838.91;;;2.79;88.17
9423;BME280;65863;49.506;10.400;2022-12-07T14:37:57;97807.91;;;2.63;88.35
9423;BME280;65863;49.506;10.400;2022-12-07T14:40:41;97774.63;;;2.46;88.12
9423;BME280;65863;49.506;10.400;2022-12-07T14:43:25;97805.13;;;2.52;88.23
9423;BME280;65863;49.506;10.400;2022-12-07T14:46:09;97828.06;;;2.64;88.45
9423;BME280;65863;49.506;10.400;2022-12-07T14:48:53;97802.34;;;2.57;88.67
9423;BME280;65863;49.506;10.400;2022-12-07T14:51:38;97796.81;;;2.52;88.88
9423;BME280;65863;49.506;10.400;2022-12-07T14:54:26;97800.59;;;2.49;88.60
9423;BME280;65863;49.506;10.400;2022-12-07T14:57:12;97817.22;;;2.66;88.75
9423;BME280;65863;49.506;10.400;2022-12-07T14:59:57;97805.41;;;2.60;89.08
9423;BME280;65863;49.506;10.400;2022-12-07T15:02:41;97830.81;;;2.75;89.44
9423;BME280;65863;49.506;10.400;2022-12-07T15:05:25;97797.31;;;2.50;89.21
9423;BME280;65863;49.506;10.400;2022-12-07T15:08:11;97817.97;;;2.61;89.70
9423;BME280;65863;49.506;10.400;2022-12-07T15:10:56;97810.16;;;2.59;89.87
9423;BME280;65863;49.506;10.400;2022-12-07T15:13:40;97795.78;;;2.49;90.09
9423;BME280;65863;49.506;10.400;2022-12-07T15:16:43;97831.59;;;2.58;89.95
9423;BME280;65863;49.506;10.400;2022-12-07T15:19:27;97779.41;;;2.23;90.19
9423;BME280;65863;49.506;10.400;2022-12-07T15:22:11;97765.78;;;2.14;90.61
9423;BME280;65863;49.506;10.400;2022-12-07T15:24:55;97796.03;;;2.29;90.73
9423;BME280;65863;49.506;10.400;2022-12-07T15:27:39;97786.22;;;2.22;90.88
9423;BME280;65863;49.506;10.400;2022-12-07T15:30:23;97794.78;;;2.30;91.12
9423;BME280;65863;49.506;10.400;2022-12-07T15:33:08;97791.25;;;2.23;91.58
9423;BME280;65863;49.506;10.400;2022-12-07T15:35:52;97791.00;;;2.16;91.48
9423;BME280;65863;49.506;10.400;2022-12-07T15:38:36;97802.06;;;2.16;91.62
9423;BME280;65863;49.506;10.400;2022-12-07T15:41:20;97825.25;;;2.24;91.33
9423;BME280;65863;49.506;10.400;2022-12-07T15:44:04;97810.88;;;2.09;91.58
9423;BME280;65863;49.506;10.400;2022-12-07T15:47:07;97800.28;;;2.01;92.04
9423;BME280;65863;49.506;10.400;2022-12-07T15:49:51;97788.19;;;1.93;91.95
9423;BME280;65863;49.506;10.400;2022-12-07T15:52:35;97795.50;;;2.08;91.95
9423;BME280;65863;49.506;10.400;2022-12-07T15:55:19;97691.94;;;1.43;92.02
9423;BME280;65863;49.506;10.400;2022-12-07T15:58:03;97757.97;;;1.95;92.49
9423;BME280;65863;49.506;10.400;2022-12-07T16:00:47;97771.84;;;2.06;92.27
9423;BME280;65863;49.506;10.400;2022-12-07T16:03:32;97794.97;;;1.92;92.86
9423;BME280;65863;49.506;10.400;2022-12-07T16:06:17;97792.25;;;2.15;92.64
9423;BME280;65863;49.506;10.400;2022-12-07T16:09:02;97786.47;;;2.13;92.48
9423;BME280;65863;49.506;10.400;2022-12-07T16:11:47;97796.00;;;2.00;92.58
9423;BME280;65863;49.506;10.400;2022-12-07T16:14:31;97784.13;;;1.88;92.68
9423;BME280;65863;49.506;10.400;2022-12-07T16:17:16;97734.69;;;1.53;92.62
9423;BME280;65863;49.506;10.400;2022-12-07T16:20:00;97775.75;;;1.66;93.00
9423;BME280;65863;49.506;10.400;2022-12-07T16:22:45;97774.28;;;1.70;92.45
9423;BME280;65863;49.506;10.400;2022-12-07T16:25:29;97772.94;;;1.54;92.54
9423;BME280;65863;49.506;10.400;2022-12-07T16:28:13;97727.53;;;1.12;92.89
9423;BME280;65863;49.506;10.400;2022-12-07T16:31:06;97796.34;;;1.53;92.48
9423;BME280;65863;49.506;10.400;2022-12-07T16:33:53;97737.22;;;0.96;92.45